createdAt,value
2022-12-12T00:02:19.105Z,1.00
2022-12-12T00:04:52.449Z,1.00
2022-12-12T00:07:24.207Z,0.90
2022-12-12T00:10:03.839Z,1.00
2022-12-12T00:12:35.018Z,1.00
2022-12-12T00:15:23.810Z,0.80
2022-12-12T00:17:58.293Z,1.10
2022-12-12T00:20:29.466Z,0.80
2022-12-12T00:23:05.450Z,0.97
2022-12-12T00:25:34.975Z,1.00
2022-12-12T00:28:05.846Z,1.00
2022-12-12T00:30:36.253Z,1.00
2022-12-12T00:33:11.692Z,1.20
2022-12-12T00:35:43.756Z,1.00
2022-12-12T00:38:16.356Z,1.10
2022-12-12T00:40:50.998Z,1.10
2022-12-12T00:43:23.776Z,1.25
2022-12-12T00:45:54.342Z,1.20
2022-12-12T00:48:24.587Z,1.10
2022-12-12T00:50:58.074Z,1.10
2022-12-12T00:56:16.573Z,0.93
2022-12-12T00:59:06.589Z,1.10
2022-12-12T01:01:44.806Z,1.05
2022-12-12T01:04:17.313Z,1.07
2022-12-12T01:06:48.446Z,1.00
2022-12-12T01:09:19.225Z,0.93
2022-12-12T01:12:01.107Z,1.00
2022-12-12T01:14:33.053Z,1.30
2022-12-12T01:17:03.221Z,1.07
2022-12-12T01:19:45.388Z,1.17
2022-12-12T01:24:50.324Z,1.07
2022-12-12T01:27:20.426Z,1.00
2022-12-12T01:29:50.964Z,1.00
2022-12-12T01:32:21.905Z,1.20
2022-12-12T01:34:52.179Z,0.95
2022-12-12T01:37:25.296Z,0.80
2022-12-12T01:39:55.418Z,0.85
2022-12-12T01:42:25.569Z,0.82
2022-12-12T01:44:56.165Z,0.90
2022-12-12T01:47:26.342Z,0.90
2022-12-12T01:50:04.294Z,0.90
2022-12-12T01:52:37.433Z,0.90
2022-12-12T01:55:07.890Z,1.03
2022-12-12T01:57:39.893Z,1.20
2022-12-12T02:00:19.631Z,1.30
2022-12-12T02:02:48.766Z,1.05
2022-12-12T02:05:25.231Z,1.06
2022-12-12T02:07:55.453Z,0.88
2022-12-12T02:10:26.169Z,0.97
2022-12-12T02:12:58.441Z,0.93
2022-12-12T02:15:44.029Z,0.90
2022-12-12T02:18:50.423Z,0.95
2022-12-12T02:21:23.181Z,0.97
2022-12-12T02:24:26.251Z,0.93
2022-12-12T02:27:02.359Z,1.20
2022-12-12T02:29:35.195Z,0.80
2022-12-12T02:32:16.980Z,0.83
2022-12-12T02:35:12.425Z,0.80
2022-12-12T02:37:55.207Z,0.88
2022-12-12T02:40:31.328Z,0.88
2022-12-12T02:43:36.592Z,0.98
2022-12-12T02:46:09.785Z,0.90
2022-12-12T02:48:55.228Z,0.80
2022-12-12T02:51:25.601Z,0.68
2022-12-12T02:53:55.664Z,0.87
2022-12-12T02:56:53.536Z,1.05
2022-12-12T02:59:40.236Z,0.90
2022-12-12T03:02:33.691Z,0.90
2022-12-12T03:05:42.038Z,0.80
2022-12-12T03:08:32.550Z,1.00
2022-12-12T03:11:12.140Z,1.00
2022-12-12T03:13:51.135Z,0.80
2022-12-12T03:16:27.448Z,0.72
2022-12-12T03:19:16.666Z,0.90
2022-12-12T03:21:54.882Z,1.22
2022-12-12T03:24:43.042Z,0.80
2022-12-12T03:27:23.682Z,0.70
2022-12-12T03:30:10.927Z,0.90
2022-12-12T03:33:07.635Z,0.72
2022-12-12T03:35:59.895Z,0.90
2022-12-12T03:38:33.378Z,0.80
2022-12-12T03:41:08.365Z,0.70
2022-12-12T03:43:43.516Z,0.90
2022-12-12T03:46:26.761Z,1.00
2022-12-12T03:49:02.212Z,0.80
2022-12-12T03:51:37.274Z,0.80
2022-12-12T03:54:10.165Z,1.10
2022-12-12T03:56:42.949Z,0.90
2022-12-12T03:59:27.135Z,0.98
2022-12-12T04:01:56.388Z,0.90
2022-12-12T04:04:38.547Z,1.03
2022-12-12T04:07:27.174Z,1.22
2022-12-12T04:10:18.195Z,1.07
2022-12-12T04:13:15.139Z,0.84
2022-12-12T04:16:05.531Z,0.80
2022-12-12T04:18:41.445Z,0.60
2022-12-12T04:22:01.871Z,0.75
2022-12-12T04:24:34.694Z,0.80
2022-12-12T04:27:31.406Z,0.80
2022-12-12T04:30:07.437Z,0.80
2022-12-12T04:32:42.212Z,1.00
2022-12-12T04:35:17.494Z,0.90
2022-12-12T04:37:53.258Z,0.90
2022-12-12T04:40:39.333Z,0.90
2022-12-12T04:43:20.477Z,0.80
2022-12-12T04:46:05.083Z,0.82
2022-12-12T04:48:48.371Z,0.70
2022-12-12T04:51:21.025Z,1.03
2022-12-12T04:53:53.448Z,0.70
2022-12-12T04:59:33.151Z,0.70
2022-12-12T05:02:12.266Z,0.60
2022-12-12T05:05:01.681Z,0.80
2022-12-12T05:07:39.511Z,0.70
2022-12-12T05:10:07.668Z,0.60
2022-12-12T05:12:55.713Z,0.85
2022-12-12T05:15:25.669Z,0.80
2022-12-12T05:18:03.706Z,0.50
2022-12-12T05:20:33.937Z,0.68
2022-12-12T05:23:03.923Z,0.70
2022-12-12T05:25:34.219Z,0.77
2022-12-12T05:28:07.119Z,0.80
2022-12-12T05:30:37.314Z,0.70
2022-12-12T05:33:07.492Z,0.78
2022-12-12T05:35:38.431Z,0.50
2022-12-12T05:38:08.489Z,0.65
2022-12-12T05:40:38.642Z,0.72
2022-12-12T05:43:09.328Z,0.62
2022-12-12T05:45:39.400Z,0.60
2022-12-12T05:48:09.732Z,0.50
2022-12-12T05:50:39.877Z,0.62
2022-12-12T05:53:10.740Z,0.70
2022-12-12T05:55:41.245Z,0.60
2022-12-12T05:58:11.482Z,0.62
2022-12-12T06:00:41.600Z,0.70
2022-12-12T06:03:12.463Z,0.60
2022-12-12T06:05:42.484Z,0.60
2022-12-12T06:08:13.307Z,0.68
2022-12-12T06:11:12.927Z,0.70
2022-12-12T06:13:44.652Z,0.65
2022-12-12T06:16:17.087Z,0.50
2022-12-12T06:19:01.794Z,0.60
2022-12-12T06:21:31.070Z,0.42
2022-12-12T06:24:01.344Z,0.53
2022-12-12T06:26:32.230Z,0.60
2022-12-12T06:29:02.770Z,0.60
2022-12-12T06:31:33.056Z,0.50
2022-12-12T06:34:34.236Z,0.70
2022-12-12T06:37:06.496Z,0.67
2022-12-12T06:39:36.641Z,0.50
2022-12-12T06:42:11.124Z,0.50
2022-12-12T06:44:43.555Z,0.65
2022-12-12T06:47:13.894Z,0.50
2022-12-12T06:49:45.305Z,0.40
2022-12-12T06:52:16.267Z,0.70
2022-12-12T06:54:48.399Z,0.40
2022-12-12T06:57:19.588Z,0.60
2022-12-12T06:59:51.429Z,0.47
2022-12-12T07:02:27.700Z,0.50
2022-12-12T07:04:56.208Z,0.50
2022-12-12T07:07:39.651Z,0.53
2022-12-12T07:10:10.773Z,0.68
2022-12-12T07:12:45.501Z,0.40
2022-12-12T07:15:18.224Z,0.40
2022-12-12T07:17:48.866Z,0.40
2022-12-12T07:20:19.084Z,0.50
2022-12-12T07:22:49.781Z,0.33
2022-12-12T07:25:20.655Z,0.47
2022-12-12T07:27:50.773Z,0.40
2022-12-12T07:30:20.972Z,0.40
2022-12-12T07:32:51.338Z,0.40
2022-12-12T07:35:21.664Z,0.40
2022-12-12T07:37:51.896Z,0.50
2022-12-12T07:40:21.891Z,0.40
2022-12-12T07:42:55.592Z,0.33
2022-12-12T07:45:25.752Z,0.40
2022-12-12T07:47:56.344Z,0.60
2022-12-12T07:50:26.254Z,0.57
2022-12-12T07:52:56.587Z,0.40
2022-12-12T07:55:26.832Z,0.30
2022-12-12T07:57:57.064Z,0.40
2022-12-12T08:00:27.827Z,0.42
2022-12-12T08:02:58.641Z,0.50
2022-12-12T08:05:29.144Z,0.40
2022-12-12T08:08:01.010Z,0.40
2022-12-12T08:10:31.616Z,0.30
2022-12-12T08:13:02.090Z,0.40
2022-12-12T08:15:32.223Z,0.40
2022-12-12T08:18:03.176Z,0.30
2022-12-12T08:20:33.134Z,0.40
2022-12-12T08:23:03.060Z,0.40
2022-12-12T08:25:34.411Z,0.43
2022-12-12T08:28:04.911Z,0.40
2022-12-12T08:30:35.129Z,0.30
2022-12-12T08:33:08.165Z,0.40
2022-12-12T08:35:37.276Z,0.40
2022-12-12T08:38:08.679Z,0.30
2022-12-12T08:40:38.752Z,0.30
2022-12-12T08:43:09.258Z,0.40
2022-12-12T08:45:40.845Z,0.40
2022-12-12T08:48:13.319Z,0.30
2022-12-12T08:50:43.897Z,0.30
2022-12-12T08:53:19.232Z,0.40
2022-12-12T08:55:49.666Z,0.40
2022-12-12T08:58:21.342Z,0.30
2022-12-12T09:00:52.084Z,0.37
2022-12-12T09:03:27.679Z,0.20
2022-12-12T09:05:54.142Z,0.40
2022-12-12T09:08:24.121Z,0.30
2022-12-12T09:10:54.153Z,0.30
2022-12-12T09:13:24.096Z,0.40
2022-12-12T09:15:55.084Z,0.30
2022-12-12T09:18:25.486Z,0.30
2022-12-12T09:20:56.834Z,0.40
2022-12-12T09:23:30.672Z,0.30
2022-12-12T09:26:00.853Z,0.27
2022-12-12T09:28:31.701Z,0.40
2022-12-12T09:31:02.123Z,0.37
2022-12-12T09:33:32.672Z,0.40
2022-12-12T09:36:03.364Z,0.30
2022-12-12T09:38:34.587Z,0.30
2022-12-12T09:41:14.612Z,0.40
2022-12-12T09:43:57.436Z,0.30
2022-12-12T09:46:35.780Z,0.30
2022-12-12T09:49:10.063Z,0.33
2022-12-12T09:51:40.254Z,0.40
2022-12-12T09:54:12.973Z,0.20
2022-12-12T09:56:48.599Z,0.40
2022-12-12T09:59:31.367Z,0.30
2022-12-12T10:02:06.911Z,0.20
2022-12-12T10:04:50.647Z,0.40
2022-12-12T10:07:22.453Z,0.37
2022-12-12T10:10:26.837Z,0.33
2022-12-12T10:12:57.349Z,0.25
2022-12-12T10:15:37.466Z,0.30
2022-12-12T10:18:09.881Z,0.20
2022-12-12T10:20:45.267Z,0.30
2022-12-12T10:23:40.442Z,0.30
2022-12-12T10:26:18.256Z,0.30
2022-12-12T10:28:50.924Z,0.30
2022-12-12T10:31:41.971Z,0.30
2022-12-12T10:34:33.571Z,0.30
2022-12-12T10:37:36.242Z,0.27
2022-12-12T10:40:15.357Z,0.30
2022-12-12T10:42:57.400Z,0.30
2022-12-12T10:45:52.894Z,0.20
2022-12-12T10:48:24.350Z,0.30
2022-12-12T10:50:56.724Z,0.30
2022-12-12T10:53:26.675Z,0.30
2022-12-12T10:56:15.909Z,0.30
2022-12-12T10:58:48.379Z,0.30
2022-12-12T11:01:44.934Z,0.20
2022-12-12T11:03:55.484Z,0.20
2022-12-12T11:06:39.699Z,0.30
2022-12-12T11:09:22.752Z,0.20
2022-12-12T11:12:06.354Z,0.30
2022-12-12T11:14:41.353Z,0.40
2022-12-12T11:17:26.422Z,0.30
2022-12-12T11:19:57.830Z,0.27
2022-12-12T11:22:28.791Z,0.30
2022-12-12T11:24:58.789Z,0.30
2022-12-12T11:27:36.995Z,0.30
2022-12-12T11:30:18.318Z,0.20
2022-12-12T11:32:49.046Z,0.23
2022-12-12T11:35:32.859Z,0.24
2022-12-12T11:38:21.211Z,0.30
2022-12-12T11:41:02.164Z,0.25
2022-12-12T11:43:40.216Z,0.30
2022-12-12T11:46:21.321Z,0.30
2022-12-12T11:49:00.543Z,0.20
2022-12-12T11:51:41.779Z,0.20
2022-12-12T11:54:16.742Z,0.30
2022-12-12T11:56:58.495Z,0.24
2022-12-12T11:59:48.948Z,0.20
2022-12-12T12:02:50.233Z,0.28
2022-12-12T12:05:26.073Z,0.20
2022-12-12T12:08:22.210Z,0.20
2022-12-12T12:10:55.152Z,0.25
2022-12-12T12:13:54.182Z,0.28
2022-12-12T12:16:44.505Z,0.30
2022-12-12T12:19:20.387Z,0.30
2022-12-12T12:22:11.023Z,0.20
2022-12-12T12:24:55.477Z,0.23
2022-12-12T12:27:43.786Z,0.30
2022-12-12T12:30:22.527Z,0.30
2022-12-12T12:33:27.130Z,0.40
2022-12-12T12:36:21.363Z,0.20
2022-12-12T12:39:08.864Z,0.27
2022-12-12T12:42:00.476Z,0.20
2022-12-12T12:44:58.126Z,0.40
2022-12-12T12:47:53.148Z,0.30
2022-12-12T12:50:31.327Z,0.30
2022-12-12T12:53:20.990Z,0.40
2022-12-12T12:55:53.942Z,0.20
2022-12-12T12:58:26.968Z,0.30
2022-12-12T13:01:02.991Z,0.30
2022-12-12T13:03:35.916Z,0.30
2022-12-12T13:06:09.635Z,0.35
2022-12-12T13:08:52.094Z,0.40
2022-12-12T13:11:28.121Z,0.30
2022-12-12T13:13:59.487Z,0.20
2022-12-12T13:16:32.445Z,0.28
2022-12-12T13:19:05.438Z,0.30
2022-12-12T13:21:49.315Z,0.30
2022-12-12T13:24:25.716Z,0.20
2022-12-12T13:27:03.992Z,0.30
2022-12-12T13:29:48.747Z,0.30
2022-12-12T13:32:39.754Z,0.40
2022-12-12T13:35:12.994Z,0.30
2022-12-12T13:37:54.404Z,0.30
2022-12-12T13:40:43.382Z,0.30
2022-12-12T13:43:32.716Z,0.30
2022-12-12T13:46:23.698Z,0.40
2022-12-12T13:49:11.185Z,0.30
2022-12-12T13:51:43.497Z,0.40
2022-12-12T13:54:22.794Z,0.30
2022-12-12T13:56:58.659Z,0.20
2022-12-12T13:59:32.940Z,0.27
2022-12-12T14:02:03.772Z,0.30
2022-12-12T14:04:38.453Z,0.23
2022-12-12T14:07:20.397Z,0.25
2022-12-12T14:09:55.251Z,0.24
2022-12-12T14:12:32.438Z,0.30
2022-12-12T14:15:07.679Z,0.30
2022-12-12T14:17:43.109Z,0.40
2022-12-12T14:20:18.439Z,0.20
2022-12-12T14:22:51.922Z,0.30
2022-12-12T14:25:22.495Z,0.33
2022-12-12T14:27:55.282Z,0.30
2022-12-12T14:30:26.878Z,0.40
2022-12-12T14:33:05.420Z,0.40
2022-12-12T14:35:44.418Z,0.23
2022-12-12T14:38:41.346Z,0.30
2022-12-12T14:41:16.600Z,0.28
2022-12-12T14:44:37.742Z,0.20
2022-12-12T14:46:24.635Z,0.30
2022-12-12T14:49:05.556Z,0.30
2022-12-12T14:51:39.583Z,0.20
2022-12-12T14:54:18.827Z,0.30
2022-12-12T14:56:53.206Z,0.30
2022-12-12T14:59:36.128Z,0.30
2022-12-12T15:02:25.394Z,0.20
2022-12-12T15:05:04.137Z,0.30
2022-12-12T15:09:59.563Z,0.30
2022-12-12T15:12:31.279Z,0.30
2022-12-12T15:15:02.550Z,0.30
2022-12-12T15:17:40.371Z,0.30
2022-12-12T15:20:13.361Z,0.30
2022-12-12T15:23:00.891Z,0.30
2022-12-12T15:25:37.867Z,0.23
2022-12-12T15:28:09.874Z,0.30
2022-12-12T15:30:44.354Z,0.30
2022-12-12T15:33:18.728Z,0.30
2022-12-12T15:36:02.210Z,0.35
2022-12-12T15:38:31.853Z,0.33
2022-12-12T15:41:02.320Z,0.30
2022-12-12T15:43:32.247Z,0.40
2022-12-12T15:46:05.820Z,0.30
2022-12-12T15:48:36.047Z,0.33
2022-12-12T15:51:07.340Z,0.27
2022-12-12T15:53:39.938Z,0.30
2022-12-12T15:56:12.598Z,0.30
2022-12-12T15:58:46.545Z,0.30
2022-12-12T16:01:21.996Z,0.35
2022-12-12T16:04:02.912Z,0.30
2022-12-12T16:06:42.873Z,0.30
2022-12-12T16:09:27.917Z,0.33
2022-12-12T16:11:58.773Z,0.30
2022-12-12T16:14:39.559Z,0.30
2022-12-12T16:17:11.302Z,0.30
2022-12-12T16:19:43.622Z,0.30
2022-12-12T16:22:38.828Z,0.50
2022-12-12T16:25:25.966Z,0.40
2022-12-12T16:28:20.188Z,0.40
2022-12-12T16:30:50.105Z,0.30
2022-12-12T16:33:37.010Z,0.30
2022-12-12T16:36:12.310Z,0.30
2022-12-12T16:38:45.622Z,0.30
2022-12-12T16:41:18.761Z,0.40
2022-12-12T16:43:50.324Z,0.30
2022-12-12T16:46:27.048Z,0.30
2022-12-12T16:48:59.670Z,0.40
2022-12-12T16:51:30.055Z,0.40
2022-12-12T16:54:00.701Z,0.30
2022-12-12T16:56:30.884Z,0.30
2022-12-12T16:59:01.596Z,0.30
2022-12-12T17:01:37.182Z,0.30
2022-12-12T17:04:04.519Z,0.37
2022-12-12T17:06:36.014Z,0.30
2022-12-12T17:09:07.049Z,0.30
2022-12-12T17:11:37.071Z,0.30
2022-12-12T17:14:07.372Z,0.30
2022-12-12T17:16:37.818Z,0.30
2022-12-12T17:19:08.128Z,0.30
2022-12-12T17:21:38.253Z,0.30
2022-12-12T17:24:08.727Z,0.30
2022-12-12T17:26:59.523Z,0.30
2022-12-12T17:29:30.534Z,0.50
2022-12-12T17:32:04.768Z,0.35
2022-12-12T17:34:38.448Z,0.30
2022-12-12T17:37:10.127Z,0.30
2022-12-12T17:39:40.566Z,0.30
2022-12-12T17:42:10.968Z,0.40
2022-12-12T17:44:41.035Z,0.40
2022-12-12T17:47:11.254Z,0.30
2022-12-12T17:49:41.234Z,0.30
2022-12-12T17:52:11.177Z,0.40
2022-12-12T17:54:41.315Z,0.40
2022-12-12T17:57:11.435Z,0.40
2022-12-12T17:59:41.627Z,0.42
2022-12-12T18:02:13.859Z,0.37
2022-12-12T18:04:44.425Z,0.50
2022-12-12T18:07:14.903Z,0.42
2022-12-12T18:09:44.905Z,0.40
2022-12-12T18:12:15.454Z,0.40
2022-12-12T18:14:46.219Z,0.40
2022-12-12T18:17:16.577Z,0.40
2022-12-12T18:19:48.155Z,0.60
2022-12-12T18:22:18.667Z,0.40
2022-12-12T18:24:51.658Z,0.40
2022-12-12T18:27:22.400Z,0.50
2022-12-12T18:29:52.344Z,0.50
2022-12-12T18:32:22.663Z,0.50
2022-12-12T18:34:53.681Z,0.38
2022-12-12T18:37:24.034Z,0.40
2022-12-12T18:39:54.354Z,0.50
2022-12-12T18:42:25.386Z,0.50
2022-12-12T18:45:07.377Z,0.40
2022-12-12T18:47:37.580Z,0.40
2022-12-12T18:50:08.157Z,0.60
2022-12-12T18:52:38.895Z,0.40
2022-12-12T18:55:10.440Z,0.40
2022-12-12T18:57:43.074Z,0.50
2022-12-12T19:00:16.486Z,0.50
2022-12-12T19:02:49.954Z,0.40
2022-12-12T19:05:21.331Z,0.40
2022-12-12T19:07:51.837Z,0.48
2022-12-12T19:10:22.175Z,0.50
2022-12-12T19:12:52.474Z,0.50
2022-12-12T19:15:27.308Z,0.50
2022-12-12T19:18:00.635Z,0.47
2022-12-12T19:20:31.869Z,0.40
2022-12-12T19:23:05.780Z,0.53
2022-12-12T19:25:42.342Z,0.50
2022-12-12T19:28:09.074Z,0.40
2022-12-12T19:30:40.618Z,0.50
2022-12-12T19:33:12.312Z,0.40
2022-12-12T19:35:43.618Z,0.50
2022-12-12T19:38:19.812Z,0.50
2022-12-12T19:40:49.137Z,0.50
2022-12-12T19:43:20.044Z,0.50
2022-12-12T19:45:53.225Z,0.50
2022-12-12T19:48:25.255Z,0.50
2022-12-12T19:51:07.426Z,0.55
2022-12-12T19:53:51.563Z,0.50
2022-12-12T19:59:47.456Z,0.43
2022-12-12T20:02:26.978Z,0.60
2022-12-12T20:05:16.825Z,0.50
2022-12-12T20:10:51.566Z,0.50
2022-12-12T20:13:23.521Z,0.50
2022-12-12T20:19:01.857Z,0.60
2022-12-12T20:24:28.023Z,0.55
2022-12-12T20:27:06.824Z,0.50
2022-12-12T20:32:41.500Z,0.60
2022-12-12T20:35:13.549Z,0.60
2022-12-12T20:38:09.863Z,0.70
2022-12-12T20:40:45.918Z,0.60
2022-12-12T20:43:33.682Z,0.57
2022-12-12T20:45:59.096Z,0.60
2022-12-12T20:48:45.298Z,0.60
2022-12-12T20:51:52.855Z,0.60
2022-12-12T20:53:53.561Z,0.58
2022-12-12T20:56:23.853Z,0.50
2022-12-12T20:59:03.557Z,0.50
2022-12-12T21:01:35.534Z,0.60
2022-12-12T21:04:15.099Z,0.68
2022-12-12T21:06:52.018Z,0.70
2022-12-12T21:09:28.452Z,0.60
2022-12-12T21:12:01.568Z,0.50
2022-12-12T21:14:33.618Z,0.53
2022-12-12T21:17:03.866Z,0.60
2022-12-12T21:19:38.532Z,0.62
2022-12-12T21:22:15.072Z,0.57
2022-12-12T21:24:55.580Z,0.60
2022-12-12T21:27:29.356Z,0.60
2022-12-12T21:30:03.548Z,0.60
2022-12-12T21:32:52.218Z,0.67
2022-12-12T21:35:25.926Z,0.70
2022-12-12T21:40:57.509Z,0.60
2022-12-12T21:43:30.205Z,0.52
2022-12-12T22:02:38.956Z,0.57
2022-12-12T22:05:10.298Z,0.73
2022-12-12T22:07:40.530Z,0.67
2022-12-12T22:10:11.995Z,0.70
2022-12-12T22:12:56.976Z,0.80
2022-12-12T22:15:20.628Z,0.68
2022-12-12T22:17:51.384Z,0.60
2022-12-12T22:20:25.075Z,0.70
2022-12-12T22:22:58.685Z,0.70
2022-12-12T22:28:19.095Z,0.80
2022-12-12T22:30:50.720Z,0.80
2022-12-12T22:36:30.285Z,0.90
2022-12-12T22:39:00.599Z,0.80
2022-12-12T22:41:37.198Z,0.70
2022-12-12T22:44:11.168Z,0.85
2022-12-12T22:46:44.732Z,0.70
2022-12-12T22:49:19.285Z,0.80
2022-12-12T22:51:50.701Z,0.80
2022-12-12T22:54:39.654Z,0.80
2022-12-12T22:57:10.309Z,0.80
2022-12-12T22:59:42.883Z,1.00
2022-12-12T23:02:25.266Z,0.72
2022-12-12T23:04:58.383Z,0.80
2022-12-12T23:07:32.315Z,0.87
2022-12-12T23:10:06.054Z,1.10
2022-12-12T23:12:43.048Z,0.82
2022-12-12T23:15:22.567Z,0.85
2022-12-12T23:18:00.947Z,0.85
2022-12-12T23:20:45.701Z,1.00
2022-12-12T23:23:17.471Z,0.90
2022-12-12T23:25:50.413Z,0.80
2022-12-12T23:28:20.703Z,1.07
2022-12-12T23:30:52.503Z,0.90
2022-12-12T23:33:22.515Z,0.93
2022-12-12T23:35:52.604Z,0.80
2022-12-12T23:38:28.461Z,0.80
2022-12-12T23:41:00.558Z,1.00
2022-12-12T23:43:30.984Z,1.00
2022-12-12T23:46:16.392Z,0.80
2022-12-12T23:52:05.226Z,0.85
2022-12-12T23:54:42.317Z,1.00
